createdAt,value
2023-09-29T00:00:53.578Z,81.43
2023-09-29T00:03:21.467Z,81.73
2023-09-29T00:05:50.266Z,81.42
2023-09-29T00:08:18.459Z,81.05
2023-09-29T00:10:48.051Z,81.07
2023-09-29T00:13:15.513Z,80.53
2023-09-29T00:15:42.924Z,80.81
2023-09-29T00:18:11.761Z,81.15
2023-09-29T00:20:39.383Z,81.85
2023-09-29T00:23:06.978Z,82.05
2023-09-29T00:25:34.875Z,82.15
2023-09-29T00:28:02.448Z,81.84
2023-09-29T00:30:29.951Z,82.67
2023-09-29T00:32:57.547Z,81.73
2023-09-29T00:35:29.298Z,82.14
2023-09-29T00:37:58.249Z,83.33
2023-09-29T00:40:26.866Z,81.53
2023-09-29T00:42:54.749Z,83.08
2023-09-29T00:45:24.969Z,82.76
2023-09-29T00:47:56.937Z,83.66
2023-09-29T00:50:29.238Z,81.82
2023-09-29T00:53:00.820Z,82.61
2023-09-29T00:55:31.701Z,83.09
2023-09-29T00:58:00.731Z,81.66
2023-09-29T01:00:34.203Z,82.54
2023-09-29T01:03:06.125Z,82.38
2023-09-29T01:05:39.476Z,81.49
2023-09-29T01:08:10.739Z,82.50
2023-09-29T01:10:38.860Z,81.96
2023-09-29T01:13:06.836Z,82.38
2023-09-29T01:15:35.805Z,82.39
2023-09-29T01:18:03.970Z,82.29
2023-09-29T01:20:31.750Z,81.83
2023-09-29T01:23:02.316Z,81.82
2023-09-29T01:25:31.295Z,81.95
2023-09-29T01:27:59.674Z,82.63
2023-09-29T01:30:28.710Z,82.49
2023-09-29T01:33:00.426Z,81.71
2023-09-29T01:35:29.328Z,81.06
2023-09-29T01:38:00.265Z,81.13
2023-09-29T01:40:29.251Z,81.14
2023-09-29T01:42:58.906Z,80.90
2023-09-29T01:45:28.080Z,81.30
2023-09-29T01:47:56.737Z,81.37
2023-09-29T01:50:25.472Z,81.70
2023-09-29T01:52:53.662Z,80.93
2023-09-29T01:55:24.060Z,81.05
2023-09-29T01:57:55.694Z,81.02
2023-09-29T02:00:26.673Z,80.62
2023-09-29T02:02:56.168Z,80.73
2023-09-29T02:05:25.401Z,80.37
2023-09-29T02:07:53.499Z,79.98
2023-09-29T02:10:22.134Z,79.35
2023-09-29T02:12:55.326Z,79.04
2023-09-29T02:15:24.547Z,79.88
2023-09-29T02:17:52.292Z,79.70
2023-09-29T02:20:22.273Z,79.46
2023-09-29T02:22:50.630Z,79.02
2023-09-29T02:25:19.975Z,79.71
2023-09-29T02:27:48.351Z,80.14
2023-09-29T02:30:15.966Z,79.72
2023-09-29T02:32:44.836Z,80.09
2023-09-29T02:35:12.534Z,79.26
2023-09-29T02:37:40.806Z,79.68
2023-09-29T02:40:16.087Z,80.00
2023-09-29T02:42:45.426Z,80.17
2023-09-29T02:45:13.191Z,79.71
2023-09-29T02:47:42.530Z,79.68
2023-09-29T02:50:12.970Z,80.01
2023-09-29T02:52:41.548Z,79.94
2023-09-29T02:55:14.231Z,80.19
2023-09-29T02:57:43.844Z,79.99
2023-09-29T03:00:16.927Z,79.82
2023-09-29T03:02:45.018Z,80.17
2023-09-29T03:05:17.091Z,80.16
2023-09-29T03:07:45.141Z,79.32
2023-09-29T03:10:14.705Z,79.67
2023-09-29T03:12:43.863Z,79.92
2023-09-29T03:15:13.108Z,79.53
2023-09-29T03:17:40.659Z,79.89
2023-09-29T03:20:12.162Z,79.69
2023-09-29T03:22:41.714Z,79.67
2023-09-29T03:25:11.650Z,79.08
2023-09-29T03:27:40.133Z,78.99
2023-09-29T03:30:10.774Z,79.34
2023-09-29T03:32:38.462Z,78.29
2023-09-29T03:35:06.970Z,78.55
2023-09-29T03:37:37.366Z,78.56
2023-09-29T03:40:09.990Z,78.71
2023-09-29T03:42:38.174Z,79.51
2023-09-29T03:45:07.572Z,79.67
2023-09-29T03:47:35.583Z,79.27
2023-09-29T03:50:04.739Z,79.06
2023-09-29T03:52:33.326Z,79.66
2023-09-29T03:55:00.962Z,80.22
2023-09-29T03:57:29.755Z,79.67
2023-09-29T03:59:57.270Z,79.78
2023-09-29T04:02:24.759Z,78.74
2023-09-29T04:04:52.196Z,77.83
2023-09-29T04:07:19.620Z,78.16
2023-09-29T04:09:47.225Z,78.57
2023-09-29T04:12:14.651Z,77.25
2023-09-29T04:14:43.496Z,77.89
2023-09-29T04:17:10.951Z,77.75
2023-09-29T04:19:39.611Z,76.89
2023-09-29T04:22:07.089Z,77.82
2023-09-29T04:24:34.970Z,77.85
2023-09-29T04:27:02.470Z,77.71
2023-09-29T04:29:30.106Z,77.97
2023-09-29T04:31:58.964Z,77.23
2023-09-29T04:34:26.388Z,76.75
2023-09-29T04:36:54.929Z,76.22
2023-09-29T04:39:22.418Z,76.71
2023-09-29T04:41:49.934Z,77.16
2023-09-29T04:44:17.418Z,79.17
2023-09-29T04:46:44.915Z,78.69
2023-09-29T04:49:13.708Z,77.08
2023-09-29T04:51:41.149Z,77.89
2023-09-29T04:54:08.813Z,77.51
2023-09-29T04:56:36.401Z,76.57
2023-09-29T04:59:04.133Z,81.85
2023-09-29T05:01:31.765Z,83.50
2023-09-29T05:03:59.443Z,78.93
2023-09-29T05:06:29.793Z,78.09
2023-09-29T05:08:57.671Z,76.83
2023-09-29T05:11:27.204Z,78.84
2023-09-29T05:13:57.132Z,77.32
2023-09-29T05:16:25.553Z,77.21
2023-09-29T05:18:54.682Z,77.27
2023-09-29T05:21:24.127Z,76.43
2023-09-29T05:23:52.942Z,78.11
2023-09-29T05:26:20.623Z,76.79
2023-09-29T05:28:48.060Z,76.85
2023-09-29T05:31:15.519Z,77.15
2023-09-29T05:33:43.030Z,77.64
2023-09-29T05:36:10.622Z,76.59
2023-09-29T05:38:38.263Z,76.19
2023-09-29T05:41:07.288Z,75.96
2023-09-29T05:43:35.048Z,75.92
2023-09-29T05:46:02.691Z,75.97
2023-09-29T05:48:30.274Z,75.44
2023-09-29T05:50:58.077Z,76.06
2023-09-29T05:53:25.637Z,77.11
2023-09-29T05:55:53.086Z,75.71
2023-09-29T05:58:22.763Z,73.09
2023-09-29T06:00:50.440Z,74.24
2023-09-29T06:03:18.071Z,72.94
2023-09-29T06:05:45.696Z,72.43
2023-09-29T06:08:13.272Z,73.77
2023-09-29T06:10:40.975Z,72.86
2023-09-29T06:13:10.479Z,72.17
2023-09-29T06:15:40.793Z,72.77
2023-09-29T06:18:09.035Z,73.68
2023-09-29T06:20:36.683Z,74.00
2023-09-29T06:23:04.453Z,72.06
2023-09-29T06:25:31.991Z,71.51
2023-09-29T06:27:59.453Z,72.03
2023-09-29T06:30:27.086Z,73.45
2023-09-29T06:32:56.158Z,72.67
2023-09-29T06:35:23.908Z,73.25
2023-09-29T06:37:52.599Z,71.94
2023-09-29T06:40:20.146Z,71.40
2023-09-29T06:42:47.616Z,72.63
2023-09-29T06:45:15.085Z,72.30
2023-09-29T06:47:42.621Z,71.38
2023-09-29T06:50:12.321Z,71.33
2023-09-29T06:52:40.821Z,71.26
2023-09-29T06:55:09.109Z,70.90
2023-09-29T06:57:36.761Z,71.53
2023-09-29T07:00:06.981Z,71.42
2023-09-29T07:02:34.626Z,71.11
2023-09-29T07:05:04.131Z,70.97
2023-09-29T07:07:33.217Z,70.78
2023-09-29T07:10:00.704Z,70.29
2023-09-29T07:12:28.204Z,70.42
2023-09-29T07:14:55.754Z,71.09
2023-09-29T07:17:23.249Z,71.46
2023-09-29T07:19:50.695Z,70.60
2023-09-29T07:22:18.185Z,70.26
2023-09-29T07:24:47.471Z,69.53
2023-09-29T07:27:15.056Z,69.91
2023-09-29T07:29:42.574Z,69.82
2023-09-29T07:32:13.076Z,68.51
2023-09-29T07:34:40.877Z,69.65
2023-09-29T07:37:08.348Z,69.28
2023-09-29T07:39:35.750Z,69.05
2023-09-29T07:42:04.669Z,68.74
2023-09-29T07:44:33.084Z,68.86
2023-09-29T07:47:00.786Z,68.57
2023-09-29T07:49:28.914Z,68.71
2023-09-29T07:51:56.504Z,68.69
2023-09-29T07:54:24.195Z,68.19
2023-09-29T07:56:51.883Z,68.16
2023-09-29T07:59:21.015Z,68.83
2023-09-29T08:01:50.839Z,68.87
2023-09-29T08:04:18.962Z,68.37
2023-09-29T08:06:46.723Z,68.39
2023-09-29T08:09:14.845Z,67.81
2023-09-29T08:11:43.768Z,70.08
2023-09-29T08:14:12.009Z,68.60
2023-09-29T08:16:40.905Z,69.09
2023-09-29T08:19:08.429Z,68.26
2023-09-29T08:21:36.103Z,67.87
2023-09-29T08:24:05.094Z,67.94
2023-09-29T08:26:32.967Z,68.46
2023-09-29T08:29:01.250Z,67.78
2023-09-29T08:31:29.469Z,68.00
2023-09-29T08:33:58.315Z,66.97
2023-09-29T08:36:25.820Z,67.67
2023-09-29T08:38:53.501Z,68.66
2023-09-29T08:41:27.389Z,69.01
2023-09-29T08:44:06.172Z,69.19
2023-09-29T08:46:36.321Z,68.99
2023-09-29T08:49:06.468Z,67.95
2023-09-29T08:51:35.250Z,67.97
2023-09-29T08:54:04.989Z,67.15
2023-09-29T08:56:33.095Z,67.04
2023-09-29T08:59:01.907Z,67.24
2023-09-29T09:01:31.365Z,67.99
2023-09-29T09:03:59.215Z,67.23
2023-09-29T09:06:29.216Z,67.57
2023-09-29T09:08:57.719Z,67.70
2023-09-29T09:11:25.210Z,66.85
2023-09-29T09:14:00.869Z,68.23
2023-09-29T09:16:29.052Z,68.26
2023-09-29T09:18:56.829Z,68.22
2023-09-29T09:21:34.216Z,68.43
2023-09-29T09:24:01.749Z,68.19
2023-09-29T09:26:30.650Z,68.62
2023-09-29T09:29:08.999Z,68.25
2023-09-29T09:31:44.795Z,68.98
2023-09-29T09:34:14.038Z,68.90
2023-09-29T09:36:53.718Z,68.93
2023-09-29T09:39:25.076Z,68.59
2023-09-29T09:41:54.263Z,68.56
2023-09-29T09:44:22.170Z,68.58
2023-09-29T09:46:55.171Z,69.13
2023-09-29T09:49:30.303Z,68.51
2023-09-29T09:52:04.750Z,68.04
2023-09-29T09:54:36.091Z,68.10
2023-09-29T09:57:09.901Z,68.01
2023-09-29T09:59:38.162Z,68.30
2023-09-29T10:02:08.650Z,67.48
2023-09-29T10:04:38.512Z,67.56
2023-09-29T10:07:08.378Z,67.92
2023-09-29T10:09:44.739Z,68.14
2023-09-29T10:12:28.746Z,67.90
2023-09-29T10:14:57.215Z,67.84
2023-09-29T10:17:24.819Z,67.76
2023-09-29T10:19:55.414Z,68.09
2023-09-29T10:22:26.213Z,66.97
2023-09-29T10:24:58.306Z,67.70
2023-09-29T10:27:32.074Z,67.75
2023-09-29T10:30:17.549Z,67.07
2023-09-29T10:32:49.557Z,68.40
2023-09-29T10:35:21.975Z,67.59
2023-09-29T10:37:56.104Z,68.22
2023-09-29T10:40:26.711Z,67.59
2023-09-29T10:42:57.571Z,67.24
2023-09-29T10:45:31.254Z,67.10
2023-09-29T10:48:03.120Z,67.21
2023-09-29T10:50:30.974Z,67.39
2023-09-29T10:52:59.778Z,67.08
2023-09-29T10:55:27.420Z,67.02
2023-09-29T10:57:59.467Z,67.59
2023-09-29T11:00:27.022Z,67.25
2023-09-29T11:02:55.301Z,67.26
2023-09-29T11:05:22.832Z,67.77
2023-09-29T11:07:52.922Z,67.30
2023-09-29T11:10:22.444Z,66.37
2023-09-29T11:12:50.682Z,67.54
2023-09-29T11:15:19.731Z,67.50
2023-09-29T11:17:48.866Z,67.33
2023-09-29T11:20:26.041Z,67.58
2023-09-29T11:23:05.121Z,68.04
2023-09-29T11:25:34.239Z,68.80
2023-09-29T11:28:03.816Z,68.96
2023-09-29T11:30:31.355Z,69.17
2023-09-29T11:32:58.880Z,69.47
2023-09-29T11:35:26.569Z,69.15
2023-09-29T11:37:54.011Z,68.71
2023-09-29T11:40:21.688Z,69.55
2023-09-29T11:42:50.859Z,68.97
2023-09-29T11:45:18.364Z,69.48
2023-09-29T11:47:46.182Z,69.21
2023-09-29T11:50:14.225Z,69.23
2023-09-29T11:52:42.836Z,68.94
2023-09-29T11:55:12.744Z,68.46
2023-09-29T11:57:41.766Z,69.50
2023-09-29T12:00:12.873Z,68.17
2023-09-29T12:02:40.740Z,68.54
2023-09-29T12:05:10.406Z,68.50
2023-09-29T12:07:37.859Z,68.72
2023-09-29T12:10:06.294Z,70.00
2023-09-29T12:12:34.240Z,69.21
2023-09-29T12:15:01.938Z,69.63
2023-09-29T12:17:31.340Z,69.43
2023-09-29T12:19:59.844Z,69.92
2023-09-29T12:22:31.949Z,68.52
2023-09-29T12:24:59.529Z,67.66
2023-09-29T12:27:27.291Z,68.71
2023-09-29T12:29:55.031Z,69.36
2023-09-29T12:32:22.549Z,69.29
2023-09-29T12:34:51.874Z,70.15
2023-09-29T12:37:19.364Z,70.30
2023-09-29T12:39:50.504Z,69.17
2023-09-29T12:42:17.977Z,69.77
2023-09-29T12:44:47.784Z,69.98
2023-09-29T12:47:15.286Z,69.99
2023-09-29T12:49:43.307Z,70.02
2023-09-29T12:52:12.202Z,69.67
2023-09-29T12:54:40.339Z,70.64
2023-09-29T12:57:08.207Z,72.23
2023-09-29T12:59:37.278Z,72.83
2023-09-29T13:02:05.061Z,72.15
2023-09-29T13:04:32.671Z,72.17
2023-09-29T13:07:00.547Z,72.87
2023-09-29T13:09:29.747Z,71.84
2023-09-29T13:11:57.414Z,71.87
2023-09-29T13:14:25.503Z,72.77
2023-09-29T13:16:53.418Z,71.87
2023-09-29T13:19:23.525Z,73.06
2023-09-29T13:21:51.525Z,73.06
2023-09-29T13:24:19.805Z,75.94
2023-09-29T13:26:48.664Z,77.89
2023-09-29T13:29:16.585Z,76.50
2023-09-29T13:31:44.026Z,74.78
2023-09-29T13:34:11.805Z,74.63
2023-09-29T13:36:39.526Z,78.55
2023-09-29T13:39:08.619Z,79.92
2023-09-29T13:41:36.211Z,80.50
2023-09-29T13:44:05.491Z,77.25
2023-09-29T13:46:32.978Z,74.93
2023-09-29T13:49:00.454Z,74.15
2023-09-29T13:51:28.202Z,74.22
2023-09-29T13:53:56.035Z,73.98
2023-09-29T13:56:23.916Z,74.46
2023-09-29T13:58:51.911Z,74.38
2023-09-29T14:01:21.043Z,75.88
2023-09-29T14:03:48.845Z,76.06
2023-09-29T14:06:17.195Z,73.33
2023-09-29T14:08:44.751Z,75.88
2023-09-29T14:11:12.220Z,73.83
2023-09-29T14:13:39.662Z,73.83
2023-09-29T14:16:08.053Z,74.72
2023-09-29T14:18:36.819Z,74.27
2023-09-29T14:21:04.386Z,73.21
2023-09-29T14:23:34.680Z,75.80
2023-09-29T14:26:04.163Z,74.41
2023-09-29T14:28:31.614Z,72.77
2023-09-29T14:30:59.062Z,72.30
2023-09-29T14:33:26.549Z,72.17
2023-09-29T14:35:55.503Z,72.03
2023-09-29T14:38:22.978Z,72.69
2023-09-29T14:40:51.003Z,72.67
2023-09-29T14:43:18.444Z,75.07
2023-09-29T14:45:46.575Z,73.61
2023-09-29T14:48:14.224Z,73.09
2023-09-29T14:50:42.112Z,73.02
2023-09-29T14:53:11.584Z,73.25
2023-09-29T14:55:39.804Z,72.59
2023-09-29T14:58:07.461Z,72.53
2023-09-29T15:00:35.159Z,73.46
2023-09-29T15:03:03.130Z,72.70
2023-09-29T15:05:30.894Z,72.15
2023-09-29T15:07:58.420Z,72.87
2023-09-29T15:10:27.149Z,73.26
2023-09-29T15:12:54.659Z,72.76
2023-09-29T15:15:22.161Z,72.84
2023-09-29T15:17:49.884Z,73.23
2023-09-29T15:20:17.559Z,75.10
2023-09-29T15:22:45.055Z,73.29
2023-09-29T15:25:12.555Z,72.66
2023-09-29T15:27:41.833Z,72.71
2023-09-29T15:30:12.638Z,72.50
2023-09-29T15:32:42.422Z,72.71
2023-09-29T15:35:12.319Z,72.50
2023-09-29T15:37:39.984Z,72.81
2023-09-29T15:40:08.864Z,72.47
2023-09-29T15:42:36.294Z,71.93
2023-09-29T15:45:06.052Z,71.92
2023-09-29T15:47:33.599Z,71.89
2023-09-29T15:50:05.238Z,71.64
2023-09-29T15:52:32.750Z,71.63
2023-09-29T15:55:00.223Z,72.39
2023-09-29T15:57:28.589Z,71.60
2023-09-29T15:59:56.814Z,72.46
2023-09-29T16:02:27.460Z,73.54
2023-09-29T16:04:55.583Z,74.04
2023-09-29T16:07:23.153Z,75.95
2023-09-29T16:09:50.637Z,75.97
2023-09-29T16:12:18.370Z,75.22
2023-09-29T16:14:45.864Z,74.70
2023-09-29T16:17:13.326Z,74.70
2023-09-29T16:19:42.093Z,74.20
2023-09-29T16:22:10.335Z,75.41
2023-09-29T16:24:40.596Z,74.78
2023-09-29T16:27:08.126Z,74.33
2023-09-29T16:29:37.241Z,74.48
2023-09-29T16:32:10.959Z,74.68
2023-09-29T16:34:46.661Z,74.67
2023-09-29T16:37:15.283Z,75.39
2023-09-29T16:39:42.857Z,74.84
2023-09-29T16:42:10.302Z,76.18
2023-09-29T16:44:39.390Z,75.08
2023-09-29T16:47:06.857Z,74.11
2023-09-29T16:49:34.303Z,76.80
2023-09-29T16:52:03.123Z,75.84
2023-09-29T16:54:34.146Z,74.99
2023-09-29T16:57:01.938Z,74.57
2023-09-29T16:59:29.422Z,76.59
2023-09-29T17:01:57.174Z,75.12
2023-09-29T17:04:24.651Z,74.65
2023-09-29T17:06:52.128Z,74.38
2023-09-29T17:09:22.473Z,74.94
2023-09-29T17:11:50.124Z,75.67
2023-09-29T17:14:17.639Z,74.45
2023-09-29T17:16:45.227Z,74.64
2023-09-29T17:19:12.883Z,75.95
2023-09-29T17:21:40.459Z,74.75
2023-09-29T17:24:08.359Z,74.27
2023-09-29T17:26:37.213Z,74.47
2023-09-29T17:29:05.287Z,75.61
2023-09-29T17:31:33.487Z,75.20
2023-09-29T17:34:01.004Z,74.45
2023-09-29T17:36:28.545Z,74.21
2023-09-29T17:38:56.446Z,75.00
2023-09-29T17:41:24.021Z,75.49
2023-09-29T17:43:53.033Z,74.35
2023-09-29T17:46:20.525Z,75.86
2023-09-29T17:48:47.994Z,74.72
2023-09-29T17:51:16.624Z,74.18
2023-09-29T17:53:46.105Z,74.92
2023-09-29T17:56:14.232Z,74.94
2023-09-29T17:58:42.364Z,74.87
2023-09-29T18:01:12.113Z,76.07
2023-09-29T18:03:40.966Z,75.95
2023-09-29T18:06:09.380Z,75.83
2023-09-29T18:08:37.082Z,76.53
2023-09-29T18:11:05.430Z,75.90
2023-09-29T18:13:34.093Z,75.98
2023-09-29T18:16:01.732Z,76.87
2023-09-29T18:18:30.825Z,76.01
2023-09-29T18:21:01.045Z,76.31
2023-09-29T18:23:28.745Z,75.71
2023-09-29T18:25:56.156Z,76.40
2023-09-29T18:28:25.210Z,76.12
2023-09-29T18:30:52.900Z,76.19
2023-09-29T18:33:20.452Z,76.29
2023-09-29T18:35:49.277Z,76.05
2023-09-29T18:38:16.744Z,75.65
2023-09-29T18:40:44.187Z,75.53
2023-09-29T18:43:11.649Z,75.51
2023-09-29T18:45:39.142Z,76.18
2023-09-29T18:48:07.269Z,75.34
2023-09-29T18:50:35.849Z,75.71
2023-09-29T18:53:04.917Z,76.31
2023-09-29T18:55:32.534Z,77.56
2023-09-29T18:57:59.999Z,76.97
2023-09-29T19:00:32.896Z,77.05
2023-09-29T19:03:00.665Z,76.18
2023-09-29T19:05:28.210Z,75.35
2023-09-29T19:07:55.663Z,76.10
2023-09-29T19:10:24.442Z,76.64
2023-09-29T19:12:53.653Z,76.79
2023-09-29T19:15:22.520Z,77.17
2023-09-29T19:17:50.588Z,74.55
2023-09-29T19:20:18.645Z,74.55
2023-09-29T19:22:46.311Z,74.97
2023-09-29T19:25:13.837Z,73.84
2023-09-29T19:27:42.604Z,74.47
2023-09-29T19:30:11.720Z,76.00
2023-09-29T19:32:39.898Z,74.14
2023-09-29T19:35:08.080Z,73.25
2023-09-29T19:37:35.573Z,73.16
2023-09-29T19:40:03.085Z,72.24
2023-09-29T19:42:30.531Z,74.48
2023-09-29T19:44:59.547Z,72.47
2023-09-29T19:47:27.064Z,72.55
2023-09-29T19:49:54.499Z,71.56
2023-09-29T19:52:21.965Z,72.50
2023-09-29T19:54:49.490Z,71.44
2023-09-29T19:57:17.484Z,70.88
2023-09-29T19:59:45.541Z,70.50
2023-09-29T20:02:15.458Z,68.90
2023-09-29T20:04:42.965Z,69.24
2023-09-29T20:07:10.455Z,68.22
2023-09-29T20:09:37.988Z,68.41
2023-09-29T20:12:05.689Z,69.23
2023-09-29T20:14:33.155Z,69.62
2023-09-29T20:17:00.774Z,70.31
2023-09-29T20:19:29.574Z,69.64
2023-09-29T20:21:57.079Z,69.75
2023-09-29T20:24:25.264Z,69.44
2023-09-29T20:26:52.802Z,70.10
2023-09-29T20:29:23.249Z,71.09
2023-09-29T20:31:52.168Z,72.87
2023-09-29T20:34:19.711Z,72.46
2023-09-29T20:36:49.628Z,73.31
2023-09-29T20:39:17.810Z,73.75
2023-09-29T20:41:45.331Z,73.67
2023-09-29T20:44:13.276Z,75.28
2023-09-29T20:46:40.837Z,74.89
2023-09-29T20:49:08.268Z,75.67
2023-09-29T20:51:35.814Z,76.66
2023-09-29T20:54:04.805Z,74.80
2023-09-29T20:56:36.681Z,75.85
2023-09-29T20:59:05.146Z,74.38
2023-09-29T21:01:32.851Z,74.36
2023-09-29T21:04:07.320Z,75.00
2023-09-29T21:06:35.464Z,75.20
2023-09-29T21:09:04.594Z,75.90
2023-09-29T21:11:33.533Z,76.45
2023-09-29T21:14:01.349Z,76.40
2023-09-29T21:16:29.078Z,76.57
2023-09-29T21:18:56.700Z,77.04
2023-09-29T21:21:24.225Z,77.63
2023-09-29T21:23:51.797Z,76.77
2023-09-29T21:26:20.705Z,79.21
2023-09-29T21:28:48.246Z,78.53
2023-09-29T21:31:16.505Z,77.62
2023-09-29T21:33:44.228Z,78.05
2023-09-29T21:36:15.622Z,77.18
2023-09-29T21:38:43.436Z,78.16
2023-09-29T21:41:11.166Z,80.70
2023-09-29T21:43:40.270Z,79.75
2023-09-29T21:46:08.074Z,78.75
2023-09-29T21:48:36.433Z,78.81
2023-09-29T21:51:04.291Z,78.92
2023-09-29T21:53:31.781Z,80.25
2023-09-29T21:55:59.221Z,79.81
2023-09-29T21:58:26.708Z,80.81
2023-09-29T22:00:56.410Z,81.08
2023-09-29T22:03:24.265Z,80.92
2023-09-29T22:05:54.052Z,80.89
2023-09-29T22:08:22.129Z,82.48
2023-09-29T22:10:50.142Z,81.85
2023-09-29T22:13:20.778Z,80.59
2023-09-29T22:15:49.646Z,84.54
2023-09-29T22:18:19.183Z,81.63
2023-09-29T22:20:47.370Z,83.41
2023-09-29T22:23:17.939Z,85.15
2023-09-29T22:25:45.529Z,85.92
2023-09-29T22:28:13.070Z,86.76
2023-09-29T22:30:43.372Z,89.56
2023-09-29T22:33:10.959Z,88.75
2023-09-29T22:35:40.714Z,91.38
2023-09-29T22:38:09.010Z,91.91
2023-09-29T22:40:36.653Z,90.42
2023-09-29T22:43:04.650Z,90.66
2023-09-29T22:45:32.461Z,90.88
2023-09-29T22:48:00.153Z,89.29
2023-09-29T22:50:28.384Z,88.25
2023-09-29T22:52:57.169Z,87.94
2023-09-29T22:55:24.830Z,84.85
2023-09-29T22:57:52.716Z,87.19
2023-09-29T23:00:20.338Z,88.33
2023-09-29T23:02:48.052Z,89.32
2023-09-29T23:05:16.641Z,86.92
2023-09-29T23:07:44.286Z,87.72
2023-09-29T23:10:16.013Z,87.39
2023-09-29T23:12:47.099Z,87.86
2023-09-29T23:15:15.263Z,89.60
2023-09-29T23:17:42.868Z,90.64
2023-09-29T23:20:12.058Z,92.73
2023-09-29T23:22:39.981Z,92.13
2023-09-29T23:25:10.523Z,91.29
2023-09-29T23:27:39.711Z,93.17
2023-09-29T23:30:10.081Z,94.00
2023-09-29T23:32:38.489Z,91.06
2023-09-29T23:35:06.597Z,90.80
2023-09-29T23:37:34.108Z,90.86
2023-09-29T23:40:01.858Z,90.67
2023-09-29T23:42:29.496Z,90.40
2023-09-29T23:44:59.521Z,90.25
2023-09-29T23:47:27.433Z,88.42
2023-09-29T23:49:54.947Z,87.50
2023-09-29T23:52:22.765Z,84.57
2023-09-29T23:54:50.464Z,82.70
2023-09-29T23:57:18.077Z,83.36
2023-09-29T23:59:46.235Z,82.36
